In Rescue
 
Open Full Screen Window  High Contrast Mode
Wind Gusting 00 knots
04
November 19, 2019 12:58 PM EST
Weather Information
Wind Direction
  330 °
Wind Speed
  04 kt (5 mph)
Wind Gust
  00 kt (0 mph)
Altimeter
29.77 in
Visibility
10 SM
Temperature
04° C
39° F
Dewpoint
04° C
39° F
Humidity
100%
1hr Rain Fall
00.00 in.
24hr Rain Fall
00.00 in.
Sky Condition
Overcast @ 700 ft
IFR

METAR KISQ 191758Z AUTO 33004KT 10SM OVC007 04/04 A2977 RMK AO2 T00410035 10042 20011

FAA Disclaimer: The data displayed is for advisory purposes only and is not to be used for flight planning or operations.